sensor_id;sensor_type;location;lat;lon;timestamp;pressure;altitude;pressure_sealevel;temperature;humidity
77212;BME280;66206;0.000;0.000;2023-05-10T00:00:16;97163.49;;;24.31;25.43
77212;BME280;66206;0.000;0.000;2023-05-10T00:02:42;97166.57;;;24.26;25.46
77212;BME280;66206;0.000;0.000;2023-05-10T00:05:09;97161.19;;;24.19;25.55
77212;BME280;66206;0.000;0.000;2023-05-10T00:07:35;97162.57;;;24.21;25.58
77212;BME280;66206;0.000;0.000;2023-05-10T00:10:02;97159.93;;;24.22;25.76
77212;BME280;66206;0.000;0.000;2023-05-10T00:12:29;97156.71;;;24.11;25.68
77212;BME280;66206;0.000;0.000;2023-05-10T00:14:55;97155.30;;;24.31;25.94
77212;BME280;66206;0.000;0.000;2023-05-10T00:17:22;97154.42;;;24.10;25.88
77212;BME280;66206;0.000;0.000;2023-05-10T00:19:48;97150.61;;;24.09;25.92
77212;BME280;66206;0.000;0.000;2023-05-10T00:22:15;97148.32;;;24.21;26.03
77212;BME280;66206;0.000;0.000;2023-05-10T00:24:41;97150.25;;;24.14;26.20
77212;BME280;66206;0.000;0.000;2023-05-10T00:27:08;97149.16;;;24.08;26.25
77212;BME280;66206;0.000;0.000;2023-05-10T00:29:34;97145.47;;;24.19;26.30
77212;BME280;66206;0.000;0.000;2023-05-10T00:32:01;97142.51;;;24.05;26.41
77212;BME280;66206;0.000;0.000;2023-05-10T00:34:27;97145.53;;;24.18;26.45
77212;BME280;66206;0.000;0.000;2023-05-10T00:36:54;97147.28;;;24.08;26.62
77212;BME280;66206;0.000;0.000;2023-05-10T00:39:21;97147.64;;;24.17;26.64
77212;BME280;66206;0.000;0.000;2023-05-10T00:41:47;97148.85;;;24.25;26.75
77212;BME280;66206;0.000;0.000;2023-05-10T00:44:14;97146.95;;;24.09;26.92
77212;BME280;66206;0.000;0.000;2023-05-10T00:46:40;97145.12;;;24.18;27.03
77212;BME280;66206;0.000;0.000;2023-05-10T00:49:07;97144.29;;;24.01;27.11
77212;BME280;66206;0.000;0.000;2023-05-10T00:51:34;97146.50;;;24.25;27.19
77212;BME280;66206;0.000;0.000;2023-05-10T00:54:00;97147.32;;;24.24;27.33
77212;BME280;66206;0.000;0.000;2023-05-10T00:56:27;97147.76;;;24.02;27.49
77212;BME280;66206;0.000;0.000;2023-05-10T00:58:53;97147.57;;;24.20;27.52
77212;BME280;66206;0.000;0.000;2023-05-10T01:01:20;97148.08;;;24.16;27.66
77212;BME280;66206;0.000;0.000;2023-05-10T01:03:47;97144.55;;;24.15;27.75
77212;BME280;66206;0.000;0.000;2023-05-10T01:06:13;97145.23;;;24.08;27.93
77212;BME280;66206;0.000;0.000;2023-05-10T01:08:40;97147.57;;;24.15;27.88
77212;BME280;66206;0.000;0.000;2023-05-10T01:11:06;97150.42;;;24.14;27.96
77212;BME280;66206;0.000;0.000;2023-05-10T01:13:34;97153.46;;;24.05;28.06
77212;BME280;66206;0.000;0.000;2023-05-10T01:16:01;97153.27;;;24.18;28.18
77212;BME280;66206;0.000;0.000;2023-05-10T01:18:28;97151.93;;;24.16;28.18
77212;BME280;66206;0.000;0.000;2023-05-10T01:20:57;97150.00;;;23.93;28.39
77212;BME280;66206;0.000;0.000;2023-05-10T01:23:31;97150.58;;;24.17;28.44
77212;BME280;66206;0.000;0.000;2023-05-10T01:25:59;97151.15;;;24.09;28.48
77212;BME280;66206;0.000;0.000;2023-05-10T01:28:27;97150.97;;;24.25;28.41
77212;BME280;66206;0.000;0.000;2023-05-10T01:30:55;97151.30;;;24.14;28.49
77212;BME280;66206;0.000;0.000;2023-05-10T01:33:15;97152.21;;;24.23;28.59
77212;BME280;66206;0.000;0.000;2023-05-10T01:35:45;97148.44;;;24.16;28.81
77212;BME280;66206;0.000;0.000;2023-05-10T01:38:11;97148.57;;;24.16;28.89
77212;BME280;66206;0.000;0.000;2023-05-10T01:40:39;97146.81;;;24.11;28.83
77212;BME280;66206;0.000;0.000;2023-05-10T01:43:11;97144.24;;;24.18;29.04
77212;BME280;66206;0.000;0.000;2023-05-10T01:45:36;97145.76;;;24.24;28.99
77212;BME280;66206;0.000;0.000;2023-05-10T01:48:05;97144.81;;;24.18;29.05
77212;BME280;66206;0.000;0.000;2023-05-10T01:50:32;97145.43;;;24.21;29.15
77212;BME280;66206;0.000;0.000;2023-05-10T01:52:59;97146.49;;;24.02;29.16
77212;BME280;66206;0.000;0.000;2023-05-10T01:55:28;97148.61;;;23.98;29.27
77212;BME280;66206;0.000;0.000;2023-05-10T01:58:03;97149.50;;;24.22;29.27
77212;BME280;66206;0.000;0.000;2023-05-10T02:00:25;97151.65;;;24.11;29.47
77212;BME280;66206;0.000;0.000;2023-05-10T02:02:53;97155.81;;;24.08;29.43
77212;BME280;66206;0.000;0.000;2023-05-10T02:05:20;97156.68;;;24.02;29.56
77212;BME280;66206;0.000;0.000;2023-05-10T02:07:48;97155.07;;;24.22;29.58
77212;BME280;66206;0.000;0.000;2023-05-10T02:10:15;97155.35;;;24.03;29.55
77212;BME280;66206;0.000;0.000;2023-05-10T02:12:43;97157.02;;;23.98;29.82
77212;BME280;66206;0.000;0.000;2023-05-10T02:15:10;97155.50;;;23.97;29.86
77212;BME280;66206;0.000;0.000;2023-05-10T02:17:38;97153.36;;;24.02;29.98
77212;BME280;66206;0.000;0.000;2023-05-10T02:20:06;97154.64;;;24.07;29.90
77212;BME280;66206;0.000;0.000;2023-05-10T02:22:33;97154.14;;;23.91;30.04
77212;BME280;66206;0.000;0.000;2023-05-10T02:25:01;97152.71;;;23.94;30.04
77212;BME280;66206;0.000;0.000;2023-05-10T02:27:29;97151.66;;;24.08;30.07
77212;BME280;66206;0.000;0.000;2023-05-10T02:29:56;97150.64;;;24.23;29.98
77212;BME280;66206;0.000;0.000;2023-05-10T02:32:24;97149.44;;;24.04;30.20
77212;BME280;66206;0.000;0.000;2023-05-10T02:34:51;97148.30;;;24.07;30.20
77212;BME280;66206;0.000;0.000;2023-05-10T02:37:19;97150.88;;;24.14;30.11
77212;BME280;66206;0.000;0.000;2023-05-10T02:39:46;97149.18;;;24.03;30.20
77212;BME280;66206;0.000;0.000;2023-05-10T02:42:14;97148.73;;;24.16;30.22
77212;BME280;66206;0.000;0.000;2023-05-10T02:44:42;97147.63;;;23.91;30.28
77212;BME280;66206;0.000;0.000;2023-05-10T02:47:09;97148.50;;;23.90;30.47
77212;BME280;66206;0.000;0.000;2023-05-10T02:49:36;97147.33;;;24.22;30.34
77212;BME280;66206;0.000;0.000;2023-05-10T02:52:04;97152.21;;;24.06;30.49
77212;BME280;66206;0.000;0.000;2023-05-10T02:54:32;97147.99;;;23.95;30.51
77212;BME280;66206;0.000;0.000;2023-05-10T02:57:00;97150.21;;;24.19;30.46
77212;BME280;66206;0.000;0.000;2023-05-10T02:59:29;97148.06;;;23.90;30.58
77212;BME280;66206;0.000;0.000;2023-05-10T03:01:56;97150.08;;;24.03;30.52
77212;BME280;66206;0.000;0.000;2023-05-10T03:04:22;97148.75;;;24.00;30.60
77212;BME280;66206;0.000;0.000;2023-05-10T03:06:49;97150.82;;;23.85;30.61
77212;BME280;66206;0.000;0.000;2023-05-10T03:09:16;97149.79;;;24.09;30.44
77212;BME280;66206;0.000;0.000;2023-05-10T03:11:49;97150.65;;;24.17;30.65
77212;BME280;66206;0.000;0.000;2023-05-10T03:14:21;97154.99;;;23.98;30.64
77212;BME280;66206;0.000;0.000;2023-05-10T03:16:40;97152.27;;;24.04;30.70
77212;BME280;66206;0.000;0.000;2023-05-10T03:19:10;97156.40;;;24.13;30.71
77212;BME280;66206;0.000;0.000;2023-05-10T03:21:33;97156.59;;;24.13;30.83
77212;BME280;66206;0.000;0.000;2023-05-10T03:24:03;97157.02;;;23.97;30.89
77212;BME280;66206;0.000;0.000;2023-05-10T03:26:31;97160.22;;;24.00;30.76
77212;BME280;66206;0.000;0.000;2023-05-10T03:28:58;97162.32;;;24.20;30.85
77212;BME280;66206;0.000;0.000;2023-05-10T03:31:25;97161.58;;;24.11;31.01
77212;BME280;66206;0.000;0.000;2023-05-10T03:33:52;97164.91;;;23.94;30.95
77212;BME280;66206;0.000;0.000;2023-05-10T03:36:19;97168.86;;;24.01;30.93
77212;BME280;66206;0.000;0.000;2023-05-10T03:38:45;97174.08;;;24.05;31.03
77212;BME280;66206;0.000;0.000;2023-05-10T03:41:12;97171.33;;;23.90;31.06
77212;BME280;66206;0.000;0.000;2023-05-10T03:43:39;97175.05;;;23.93;30.99
77212;BME280;66206;0.000;0.000;2023-05-10T03:46:05;97171.90;;;24.10;30.84
77212;BME280;66206;0.000;0.000;2023-05-10T03:48:32;97177.86;;;23.91;30.99
77212;BME280;66206;0.000;0.000;2023-05-10T03:50:58;97181.91;;;23.95;30.89
77212;BME280;66206;0.000;0.000;2023-05-10T03:53:25;97182.25;;;24.03;30.89
77212;BME280;66206;0.000;0.000;2023-05-10T03:55:52;97185.34;;;24.12;30.85
77212;BME280;66206;0.000;0.000;2023-05-10T03:58:18;97188.63;;;24.04;30.89
77212;BME280;66206;0.000;0.000;2023-05-10T04:00:45;97190.90;;;24.03;30.89
77212;BME280;66206;0.000;0.000;2023-05-10T04:03:12;97197.19;;;24.00;30.89
77212;BME280;66206;0.000;0.000;2023-05-10T04:05:38;97196.10;;;24.08;30.88
77212;BME280;66206;0.000;0.000;2023-05-10T04:08:05;97197.01;;;23.82;30.90
77212;BME280;66206;0.000;0.000;2023-05-10T04:10:32;97199.27;;;24.05;30.80
77212;BME280;66206;0.000;0.000;2023-05-10T04:12:58;97203.52;;;24.15;30.71
77212;BME280;66206;0.000;0.000;2023-05-10T04:15:25;97205.68;;;23.92;30.81
77212;BME280;66206;0.000;0.000;2023-05-10T04:17:52;97210.57;;;24.07;30.83
77212;BME280;66206;0.000;0.000;2023-05-10T04:20:18;97207.89;;;23.97;30.82
77212;BME280;66206;0.000;0.000;2023-05-10T04:22:45;97212.09;;;24.12;30.83
77212;BME280;66206;0.000;0.000;2023-05-10T04:25:11;97216.61;;;24.04;30.77
77212;BME280;66206;0.000;0.000;2023-05-10T04:27:38;97217.34;;;24.08;30.86
77212;BME280;66206;0.000;0.000;2023-05-10T04:30:05;97216.24;;;23.97;30.78
77212;BME280;66206;0.000;0.000;2023-05-10T04:32:32;97217.49;;;24.00;30.81
77212;BME280;66206;0.000;0.000;2023-05-10T04:34:58;97219.63;;;23.93;30.85
77212;BME280;66206;0.000;0.000;2023-05-10T04:37:25;97222.21;;;23.93;30.75
77212;BME280;66206;0.000;0.000;2023-05-10T04:39:51;97223.19;;;23.74;30.82
77212;BME280;66206;0.000;0.000;2023-05-10T04:42:18;97225.56;;;23.99;30.81
77212;BME280;66206;0.000;0.000;2023-05-10T04:44:44;97228.91;;;23.81;30.81
77212;BME280;66206;0.000;0.000;2023-05-10T04:47:11;97231.63;;;23.92;30.71
77212;BME280;66206;0.000;0.000;2023-05-10T04:49:37;97233.30;;;24.02;30.72
77212;BME280;66206;0.000;0.000;2023-05-10T04:52:04;97236.20;;;24.02;30.73
77212;BME280;66206;0.000;0.000;2023-05-10T04:54:31;97240.77;;;23.89;30.74
77212;BME280;66206;0.000;0.000;2023-05-10T04:56:57;97245.18;;;23.95;30.75
77212;BME280;66206;0.000;0.000;2023-05-10T04:59:24;97241.53;;;23.86;30.75
77212;BME280;66206;0.000;0.000;2023-05-10T05:01:50;97250.17;;;23.83;30.74
77212;BME280;66206;0.000;0.000;2023-05-10T05:04:17;97253.91;;;23.96;30.77
77212;BME280;66206;0.000;0.000;2023-05-10T05:06:43;97255.08;;;23.98;30.66
77212;BME280;66206;0.000;0.000;2023-05-10T05:09:10;97261.71;;;23.97;30.71
77212;BME280;66206;0.000;0.000;2023-05-10T05:11:36;97260.66;;;23.92;30.69
77212;BME280;66206;0.000;0.000;2023-05-10T05:14:03;97263.23;;;23.97;30.63
77212;BME280;66206;0.000;0.000;2023-05-10T05:16:30;97269.62;;;24.02;30.57
77212;BME280;66206;0.000;0.000;2023-05-10T05:18:56;97275.93;;;24.00;30.55
77212;BME280;66206;0.000;0.000;2023-05-10T05:21:23;97270.11;;;23.90;30.75
77212;BME280;66206;0.000;0.000;2023-05-10T05:23:49;97274.57;;;24.02;30.59
77212;BME280;66206;0.000;0.000;2023-05-10T05:26:16;97271.86;;;24.01;30.54
77212;BME280;66206;0.000;0.000;2023-05-10T05:28:43;97276.14;;;24.05;30.55
77212;BME280;66206;0.000;0.000;2023-05-10T05:31:09;97278.75;;;24.14;30.41
77212;BME280;66206;0.000;0.000;2023-05-10T05:33:36;97283.24;;;24.05;30.51
77212;BME280;66206;0.000;0.000;2023-05-10T05:36:03;97280.39;;;23.91;30.53
77212;BME280;66206;0.000;0.000;2023-05-10T05:38:29;97277.62;;;24.05;30.41
77212;BME280;66206;0.000;0.000;2023-05-10T05:40:56;97282.72;;;23.87;30.46
77212;BME280;66206;0.000;0.000;2023-05-10T05:43:23;97280.38;;;24.01;30.53
77212;BME280;66206;0.000;0.000;2023-05-10T05:45:49;97279.11;;;24.27;30.14
77212;BME280;66206;0.000;0.000;2023-05-10T05:48:18;97281.28;;;23.76;30.52
77212;BME280;66206;0.000;0.000;2023-05-10T05:50:44;97283.17;;;24.07;30.38
77212;BME280;66206;0.000;0.000;2023-05-10T05:53:11;97284.05;;;23.92;30.40
77212;BME280;66206;0.000;0.000;2023-05-10T05:55:37;97287.45;;;23.93;30.46
77212;BME280;66206;0.000;0.000;2023-05-10T05:58:04;97292.47;;;23.83;30.46
77212;BME280;66206;0.000;0.000;2023-05-10T06:00:30;97294.54;;;24.07;30.45
77212;BME280;66206;0.000;0.000;2023-05-10T06:02:57;97297.84;;;24.09;30.33
77212;BME280;66206;0.000;0.000;2023-05-10T06:05:24;97302.31;;;23.92;30.45
77212;BME280;66206;0.000;0.000;2023-05-10T06:07:50;97304.94;;;24.06;30.41
77212;BME280;66206;0.000;0.000;2023-05-10T06:10:17;97309.03;;;23.93;30.40
77212;BME280;66206;0.000;0.000;2023-05-10T06:12:43;97313.26;;;23.97;30.38
77212;BME280;66206;0.000;0.000;2023-05-10T06:15:10;97315.30;;;23.92;30.35
77212;BME280;66206;0.000;0.000;2023-05-10T06:17:37;97317.55;;;24.03;30.39
77212;BME280;66206;0.000;0.000;2023-05-10T06:20:04;97318.88;;;23.87;30.33
77212;BME280;66206;0.000;0.000;2023-05-10T06:22:30;97319.87;;;23.99;30.28
77212;BME280;66206;0.000;0.000;2023-05-10T06:24:57;97321.84;;;23.99;30.33
77212;BME280;66206;0.000;0.000;2023-05-10T06:27:23;97323.37;;;24.05;30.31
77212;BME280;66206;0.000;0.000;2023-05-10T06:29:50;97329.30;;;24.21;30.41
77212;BME280;66206;0.000;0.000;2023-05-10T06:32:16;97330.82;;;24.15;30.38
77212;BME280;66206;0.000;0.000;2023-05-10T06:34:43;97331.44;;;24.13;30.39
77212;BME280;66206;0.000;0.000;2023-05-10T06:37:09;97329.87;;;24.19;30.36
77212;BME280;66206;0.000;0.000;2023-05-10T06:39:36;97331.23;;;24.14;30.39
77212;BME280;66206;0.000;0.000;2023-05-10T11:59:21;97430.08;;;17.33;38.97
77212;BME280;66206;0.000;0.000;2023-05-10T12:01:46;97424.69;;;20.20;32.90
77212;BME280;66206;0.000;0.000;2023-05-10T12:04:11;97421.21;;;21.78;29.86
77212;BME280;66206;0.000;0.000;2023-05-10T12:06:42;97421.09;;;22.51;29.36
77212;BME280;66206;0.000;0.000;2023-05-10T12:09:07;97426.80;;;22.79;28.93
77212;BME280;66206;0.000;0.000;2023-05-10T12:11:35;97426.26;;;22.92;28.20
77212;BME280;66206;0.000;0.000;2023-05-10T12:14:03;97423.26;;;23.10;27.79
77212;BME280;66206;0.000;0.000;2023-05-10T12:16:29;97422.74;;;23.38;27.51
77212;BME280;66206;0.000;0.000;2023-05-10T12:18:55;97422.59;;;23.35;27.66
77212;BME280;66206;0.000;0.000;2023-05-10T12:21:20;97426.67;;;23.12;28.23
77212;BME280;66206;0.000;0.000;2023-05-10T12:23:45;97426.35;;;23.25;27.99
77212;BME280;66206;0.000;0.000;2023-05-10T12:26:11;97420.11;;;23.58;27.70
77212;BME280;66206;0.000;0.000;2023-05-10T12:28:41;97420.62;;;23.70;27.36
77212;BME280;66206;0.000;0.000;2023-05-10T12:31:06;97424.04;;;23.86;27.38
77212;BME280;66206;0.000;0.000;2023-05-10T12:33:39;97424.94;;;23.80;27.30
77212;BME280;66206;0.000;0.000;2023-05-10T12:35:59;97427.10;;;23.33;27.61
77212;BME280;66206;0.000;0.000;2023-05-10T12:38:29;97426.09;;;23.63;27.35
77212;BME280;66206;0.000;0.000;2023-05-10T12:40:56;97425.53;;;23.97;26.98
77212;BME280;66206;0.000;0.000;2023-05-10T12:43:21;97426.01;;;23.93;27.08
77212;BME280;66206;0.000;0.000;2023-05-10T12:45:51;97426.56;;;23.77;27.05
77212;BME280;66206;0.000;0.000;2023-05-10T12:48:22;97427.91;;;23.60;27.26
77212;BME280;66206;0.000;0.000;2023-05-10T12:50:52;97426.02;;;23.59;27.23
77212;BME280;66206;0.000;0.000;2023-05-10T12:53:22;97427.84;;;23.46;27.33
77212;BME280;66206;0.000;0.000;2023-05-10T12:55:52;97429.05;;;23.68;26.87
77212;BME280;66206;0.000;0.000;2023-05-10T12:58:23;97422.80;;;23.64;26.90
77212;BME280;66206;0.000;0.000;2023-05-10T13:00:53;97424.15;;;23.38;27.10
77212;BME280;66206;0.000;0.000;2023-05-10T13:03:18;97425.34;;;23.54;26.93
77212;BME280;66206;0.000;0.000;2023-05-10T13:05:48;97428.50;;;23.41;27.14
77212;BME280;66206;0.000;0.000;2023-05-10T13:08:18;97432.17;;;23.88;26.69
77212;BME280;66206;0.000;0.000;2023-05-10T13:10:48;97433.05;;;23.62;26.98
77212;BME280;66206;0.000;0.000;2023-05-10T13:13:18;97429.72;;;24.00;26.53
77212;BME280;66206;0.000;0.000;2023-05-10T13:15:48;97430.51;;;24.07;26.42
77212;BME280;66206;0.000;0.000;2023-05-10T13:18:19;97430.29;;;23.61;26.85
77212;BME280;66206;0.000;0.000;2023-05-10T13:20:49;97433.66;;;24.12;26.45
77212;BME280;66206;0.000;0.000;2023-05-10T13:23:19;97433.42;;;23.99;26.32
77212;BME280;66206;0.000;0.000;2023-05-10T13:25:49;97431.63;;;24.03;26.32
77212;BME280;66206;0.000;0.000;2023-05-10T13:28:19;97435.53;;;23.92;26.41
77212;BME280;66206;0.000;0.000;2023-05-10T13:30:49;97433.57;;;23.57;26.74
77212;BME280;66206;0.000;0.000;2023-05-10T13:33:19;97438.42;;;23.68;26.61
77212;BME280;66206;0.000;0.000;2023-05-10T13:35:50;97439.13;;;23.77;26.41
77212;BME280;66206;0.000;0.000;2023-05-10T13:38:20;97441.02;;;23.87;26.33
77212;BME280;66206;0.000;0.000;2023-05-10T13:40:50;97442.61;;;23.57;26.59
77212;BME280;66206;0.000;0.000;2023-05-10T13:43:20;97438.22;;;23.76;26.67
77212;BME280;66206;0.000;0.000;2023-05-10T13:45:50;97438.20;;;23.73;26.70
77212;BME280;66206;0.000;0.000;2023-05-10T13:48:20;97434.92;;;23.63;26.83
77212;BME280;66206;0.000;0.000;2023-05-10T13:50:51;97429.80;;;23.73;26.83
77212;BME280;66206;0.000;0.000;2023-05-10T13:53:21;97425.07;;;23.80;26.75
77212;BME280;66206;0.000;0.000;2023-05-10T13:55:51;97424.20;;;23.50;26.94
77212;BME280;66206;0.000;0.000;2023-05-10T13:58:21;97425.32;;;23.42;26.95
77212;BME280;66206;0.000;0.000;2023-05-10T14:00:51;97424.99;;;24.01;26.51
77212;BME280;66206;0.000;0.000;2023-05-10T14:03:21;97422.31;;;23.30;27.31
77212;BME280;66206;0.000;0.000;2023-05-10T14:05:51;97424.34;;;23.37;27.09
77212;BME280;66206;0.000;0.000;2023-05-10T14:08:21;97424.73;;;23.34;27.28
77212;BME280;66206;0.000;0.000;2023-05-10T14:10:51;97422.28;;;23.40;27.19
77212;BME280;66206;0.000;0.000;2023-05-10T14:13:22;97422.67;;;23.71;26.96
77212;BME280;66206;0.000;0.000;2023-05-10T14:15:52;97422.05;;;23.52;27.27
77212;BME280;66206;0.000;0.000;2023-05-10T14:18:17;97426.26;;;23.75;26.88
77212;BME280;66206;0.000;0.000;2023-05-10T14:20:47;97423.41;;;23.50;27.27
77212;BME280;66206;0.000;0.000;2023-05-10T14:23:17;97421.79;;;23.84;26.87
77212;BME280;66206;0.000;0.000;2023-05-10T14:25:47;97421.51;;;23.41;27.17
77212;BME280;66206;0.000;0.000;2023-05-10T14:28:17;97420.56;;;23.85;27.14
77212;BME280;66206;0.000;0.000;2023-05-10T14:30:48;97422.74;;;23.79;26.85
77212;BME280;66206;0.000;0.000;2023-05-10T14:33:18;97423.91;;;23.77;26.88
77212;BME280;66206;0.000;0.000;2023-05-10T14:35:48;97423.32;;;23.71;27.00
77212;BME280;66206;0.000;0.000;2023-05-10T14:38:18;97422.38;;;23.64;27.03
77212;BME280;66206;0.000;0.000;2023-05-10T14:40:48;97424.55;;;23.99;26.83
77212;BME280;66206;0.000;0.000;2023-05-10T14:43:19;97424.16;;;23.95;26.68
77212;BME280;66206;0.000;0.000;2023-05-10T14:45:49;97423.28;;;23.80;26.95
77212;BME280;66206;0.000;0.000;2023-05-10T14:48:19;97422.76;;;23.91;26.89
77212;BME280;66206;0.000;0.000;2023-05-10T14:50:49;97421.38;;;23.92;26.76
77212;BME280;66206;0.000;0.000;2023-05-10T14:53:19;97418.62;;;24.08;26.73
77212;BME280;66206;0.000;0.000;2023-05-10T14:55:49;97417.14;;;23.99;26.75
77212;BME280;66206;0.000;0.000;2023-05-10T14:58:19;97418.36;;;24.34;26.44
77212;BME280;66206;0.000;0.000;2023-05-10T15:00:49;97418.99;;;24.05;26.67
77212;BME280;66206;0.000;0.000;2023-05-10T15:03:20;97422.23;;;23.93;26.66
77212;BME280;66206;0.000;0.000;2023-05-10T15:05:50;97421.20;;;23.73;26.83
77212;BME280;66206;0.000;0.000;2023-05-10T15:08:20;97423.93;;;23.61;27.08
77212;BME280;66206;0.000;0.000;2023-05-10T15:10:50;97426.77;;;23.93;26.87
77212;BME280;66206;0.000;0.000;2023-05-10T15:13:20;97429.90;;;24.03;26.74
77212;BME280;66206;0.000;0.000;2023-05-10T15:15:50;97437.09;;;23.76;26.78
77212;BME280;66206;0.000;0.000;2023-05-10T15:18:20;97442.97;;;23.88;26.71
77212;BME280;66206;0.000;0.000;2023-05-10T15:20:50;97446.86;;;24.18;26.56
77212;BME280;66206;0.000;0.000;2023-05-10T15:23:21;97450.83;;;23.84;26.85
77212;BME280;66206;0.000;0.000;2023-05-10T15:25:51;97454.91;;;23.67;26.97
77212;BME280;66206;0.000;0.000;2023-05-10T15:28:21;97461.68;;;23.82;26.76
77212;BME280;66206;0.000;0.000;2023-05-10T15:30:51;97463.52;;;23.69;26.83
77212;BME280;66206;0.000;0.000;2023-05-10T15:33:21;97467.14;;;23.80;26.63
77212;BME280;66206;0.000;0.000;2023-05-10T15:35:46;97465.94;;;23.95;26.30
77212;BME280;66206;0.000;0.000;2023-05-10T15:38:16;97467.74;;;24.10;26.28
77212;BME280;66206;0.000;0.000;2023-05-10T15:40:47;97469.79;;;24.10;26.18
77212;BME280;66206;0.000;0.000;2023-05-10T15:43:17;97470.53;;;24.07;26.24
77212;BME280;66206;0.000;0.000;2023-05-10T15:45:47;97472.11;;;23.88;26.35
77212;BME280;66206;0.000;0.000;2023-05-10T15:48:17;97475.17;;;23.88;26.26
77212;BME280;66206;0.000;0.000;2023-05-10T15:50:47;97474.71;;;23.87;26.34
77212;BME280;66206;0.000;0.000;2023-05-10T15:53:17;97474.62;;;23.97;26.27
77212;BME280;66206;0.000;0.000;2023-05-10T15:55:47;97480.25;;;23.70;26.45
77212;BME280;66206;0.000;0.000;2023-05-10T15:58:17;97476.32;;;23.58;26.49
77212;BME280;66206;0.000;0.000;2023-05-10T16:00:48;97482.03;;;23.72;26.51
77212;BME280;66206;0.000;0.000;2023-05-10T16:03:18;97476.78;;;23.52;26.58
77212;BME280;66206;0.000;0.000;2023-05-10T16:05:48;97471.34;;;23.68;26.36
77212;BME280;66206;0.000;0.000;2023-05-10T16:08:18;97475.24;;;23.76;26.35
77212;BME280;66206;0.000;0.000;2023-05-10T16:10:49;97476.22;;;23.68;26.38
77212;BME280;66206;0.000;0.000;2023-05-10T16:13:14;97474.84;;;23.53;26.45
77212;BME280;66206;0.000;0.000;2023-05-10T16:15:44;97474.70;;;23.67;26.40
77212;BME280;66206;0.000;0.000;2023-05-10T16:18:14;97486.25;;;23.50;26.52
77212;BME280;66206;0.000;0.000;2023-05-10T16:20:45;97483.50;;;23.35;26.61
77212;BME280;66206;0.000;0.000;2023-05-10T16:23:10;97488.78;;;23.48;26.50
77212;BME280;66206;0.000;0.000;2023-05-10T16:25:35;97491.74;;;23.44;26.62
77212;BME280;66206;0.000;0.000;2023-05-10T16:28:05;97492.85;;;23.46;26.57
77212;BME280;66206;0.000;0.000;2023-05-10T16:30:35;97495.77;;;23.44;26.58
77212;BME280;66206;0.000;0.000;2023-05-10T16:33:05;97497.35;;;23.67;26.42
77212;BME280;66206;0.000;0.000;2023-05-10T16:35:35;97499.13;;;23.51;26.48
77212;BME280;66206;0.000;0.000;2023-05-10T16:38:06;97500.61;;;23.54;26.51
77212;BME280;66206;0.000;0.000;2023-05-10T16:40:35;97500.65;;;23.37;26.52
77212;BME280;66206;0.000;0.000;2023-05-10T16:43:06;97502.45;;;23.38;26.58
77212;BME280;66206;0.000;0.000;2023-05-10T16:45:36;97503.31;;;23.41;26.63
77212;BME280;66206;0.000;0.000;2023-05-10T16:48:06;97509.97;;;23.67;26.67
77212;BME280;66206;0.000;0.000;2023-05-10T16:50:36;97514.43;;;23.60;26.58
77212;BME280;66206;0.000;0.000;2023-05-10T16:53:06;97515.67;;;23.07;26.91
77212;BME280;66206;0.000;0.000;2023-05-10T16:55:36;97520.69;;;23.41;26.63
77212;BME280;66206;0.000;0.000;2023-05-10T16:58:06;97518.28;;;23.77;26.15
77212;BME280;66206;0.000;0.000;2023-05-10T17:00:36;97517.15;;;23.76;26.14
77212;BME280;66206;0.000;0.000;2023-05-10T17:03:07;97515.01;;;24.22;25.74
77212;BME280;66206;0.000;0.000;2023-05-10T17:05:37;97518.33;;;24.53;25.51
77212;BME280;66206;0.000;0.000;2023-05-10T17:08:07;97519.71;;;24.49;25.45
77212;BME280;66206;0.000;0.000;2023-05-10T17:10:32;97523.35;;;24.16;25.76
77212;BME280;66206;0.000;0.000;2023-05-10T17:13:02;97523.58;;;24.42;25.51
77212;BME280;66206;0.000;0.000;2023-05-10T17:15:34;97523.35;;;24.52;25.31
77212;BME280;66206;0.000;0.000;2023-05-10T17:17:59;97528.09;;;24.17;25.68
77212;BME280;66206;0.000;0.000;2023-05-10T17:20:29;97529.54;;;24.37;25.48
77212;BME280;66206;0.000;0.000;2023-05-10T17:22:59;97535.15;;;24.20;25.56
77212;BME280;66206;0.000;0.000;2023-05-10T17:25:29;97540.31;;;23.75;26.09
77212;BME280;66206;0.000;0.000;2023-05-10T17:27:59;97538.28;;;24.39;25.43
77212;BME280;66206;0.000;0.000;2023-05-10T17:30:30;97537.26;;;24.40;25.42
77212;BME280;66206;0.000;0.000;2023-05-10T17:32:55;97540.38;;;24.12;25.77
77212;BME280;66206;0.000;0.000;2023-05-10T17:35:25;97547.78;;;23.94;25.71
77212;BME280;66206;0.000;0.000;2023-05-10T17:37:55;97546.85;;;24.06;25.67
77212;BME280;66206;0.000;0.000;2023-05-10T17:40:25;97549.90;;;24.07;25.75
77212;BME280;66206;0.000;0.000;2023-05-10T17:42:55;97549.71;;;24.44;25.42
77212;BME280;66206;0.000;0.000;2023-05-10T17:45:25;97553.46;;;24.63;25.17
77212;BME280;66206;0.000;0.000;2023-05-10T17:47:56;97558.76;;;23.71;25.87
77212;BME280;66206;0.000;0.000;2023-05-10T17:50:26;97561.49;;;24.06;25.64
77212;BME280;66206;0.000;0.000;2023-05-10T17:52:56;97565.60;;;23.81;25.85
77212;BME280;66206;0.000;0.000;2023-05-10T17:55:26;97566.01;;;23.42;26.32
77212;BME280;66206;0.000;0.000;2023-05-10T17:57:56;97569.46;;;23.70;26.01
77212;BME280;66206;0.000;0.000;2023-05-10T18:00:26;97569.18;;;24.11;25.69
77212;BME280;66206;0.000;0.000;2023-05-10T18:02:56;97573.63;;;23.54;26.22
77212;BME280;66206;0.000;0.000;2023-05-10T18:05:26;97576.90;;;24.00;25.81
77212;BME280;66206;0.000;0.000;2023-05-10T18:07:56;97579.24;;;23.58;26.22
77212;BME280;66206;0.000;0.000;2023-05-10T18:10:27;97577.89;;;24.01;25.43
77212;BME280;66206;0.000;0.000;2023-05-10T18:12:57;97582.29;;;23.73;25.80
77212;BME280;66206;0.000;0.000;2023-05-10T18:15:27;97582.89;;;23.83;25.60
77212;BME280;66206;0.000;0.000;2023-05-10T18:17:57;97585.30;;;23.82;25.89
77212;BME280;66206;0.000;0.000;2023-05-10T18:20:27;97583.29;;;24.29;25.43
77212;BME280;66206;0.000;0.000;2023-05-10T18:22:57;97581.55;;;24.44;25.45
77212;BME280;66206;0.000;0.000;2023-05-10T18:25:28;97584.91;;;24.60;25.41
77212;BME280;66206;0.000;0.000;2023-05-10T18:27:58;97593.32;;;24.47;25.59
77212;BME280;66206;0.000;0.000;2023-05-10T18:30:28;97595.19;;;24.43;25.70